sensor_id;sensor_type;location;lat;lon;timestamp;P1;durP1;ratioP1;P2;durP2;ratioP2
75698;SDS011;64313;51.018;13.742;2023-09-30T00:00:36;16.02;;;6.03;;
75698;SDS011;64313;51.018;13.742;2023-09-30T00:03:01;18.17;;;6.13;;
75698;SDS011;64313;51.018;13.742;2023-09-30T00:05:27;16.50;;;6.10;;
75698;SDS011;64313;51.018;13.742;2023-09-30T00:07:52;17.88;;;6.80;;
75698;SDS011;64313;51.018;13.742;2023-09-30T00:10:18;15.00;;;5.75;;
75698;SDS011;64313;51.018;13.742;2023-09-30T00:12:43;16.77;;;5.80;;
75698;SDS011;64313;51.018;13.742;2023-09-30T00:15:09;13.85;;;5.65;;
75698;SDS011;64313;51.018;13.742;2023-09-30T00:17:35;13.27;;;5.10;;
75698;SDS011;64313;51.018;13.742;2023-09-30T00:20:00;15.85;;;5.20;;
75698;SDS011;64313;51.018;13.742;2023-09-30T00:22:25;12.63;;;5.18;;
75698;SDS011;64313;51.018;13.742;2023-09-30T00:24:51;16.35;;;5.05;;
75698;SDS011;64313;51.018;13.742;2023-09-30T00:27:16;13.60;;;4.72;;
75698;SDS011;64313;51.018;13.742;2023-09-30T00:29:41;14.25;;;4.30;;
75698;SDS011;64313;51.018;13.742;2023-09-30T00:32:07;13.00;;;4.13;;
75698;SDS011;64313;51.018;13.742;2023-09-30T00:34:34;9.45;;;3.50;;
75698;SDS011;64313;51.018;13.742;2023-09-30T00:37:00;6.80;;;2.60;;
75698;SDS011;64313;51.018;13.742;2023-09-30T00:39:25;6.65;;;2.40;;
75698;SDS011;64313;51.018;13.742;2023-09-30T00:41:55;7.10;;;2.15;;
75698;SDS011;64313;51.018;13.742;2023-09-30T00:44:20;5.38;;;1.73;;
75698;SDS011;64313;51.018;13.742;2023-09-30T00:46:46;4.78;;;1.42;;
75698;SDS011;64313;51.018;13.742;2023-09-30T00:49:12;6.43;;;1.85;;
75698;SDS011;64313;51.018;13.742;2023-09-30T00:51:39;5.75;;;1.35;;
75698;SDS011;64313;51.018;13.742;2023-09-30T00:54:05;4.35;;;1.58;;
75698;SDS011;64313;51.018;13.742;2023-09-30T00:56:31;6.07;;;1.40;;
75698;SDS011;64313;51.018;13.742;2023-09-30T00:59:02;4.70;;;1.40;;
75698;SDS011;64313;51.018;13.742;2023-09-30T01:01:28;4.63;;;1.40;;
75698;SDS011;64313;51.018;13.742;2023-09-30T01:03:54;3.72;;;1.20;;
75698;SDS011;64313;51.018;13.742;2023-09-30T01:06:20;5.53;;;1.20;;
75698;SDS011;64313;51.018;13.742;2023-09-30T01:08:45;4.55;;;1.40;;
75698;SDS011;64313;51.018;13.742;2023-09-30T01:11:11;8.20;;;1.08;;
75698;SDS011;64313;51.018;13.742;2023-09-30T01:13:38;4.40;;;1.13;;
75698;SDS011;64313;51.018;13.742;2023-09-30T01:16:07;4.05;;;0.90;;
75698;SDS011;64313;51.018;13.742;2023-09-30T01:21:04;3.53;;;0.80;;
75698;SDS011;64313;51.018;13.742;2023-09-30T01:23:32;4.15;;;0.70;;
75698;SDS011;64313;51.018;13.742;2023-09-30T01:26:02;2.25;;;0.60;;
75698;SDS011;64313;51.018;13.742;2023-09-30T01:28:34;2.72;;;0.70;;
75698;SDS011;64313;51.018;13.742;2023-09-30T01:30:59;4.40;;;1.05;;
75698;SDS011;64313;51.018;13.742;2023-09-30T01:33:24;4.60;;;0.73;;
75698;SDS011;64313;51.018;13.742;2023-09-30T01:35:50;5.05;;;0.80;;
75698;SDS011;64313;51.018;13.742;2023-09-30T01:38:15;4.13;;;0.95;;
75698;SDS011;64313;51.018;13.742;2023-09-30T01:40:45;2.70;;;0.90;;
75698;SDS011;64313;51.018;13.742;2023-09-30T01:43:12;3.05;;;0.90;;
75698;SDS011;64313;51.018;13.742;2023-09-30T01:45:41;5.05;;;1.15;;
75698;SDS011;64313;51.018;13.742;2023-09-30T01:48:07;3.10;;;1.05;;
75698;SDS011;64313;51.018;13.742;2023-09-30T01:50:36;4.60;;;1.10;;
75698;SDS011;64313;51.018;13.742;2023-09-30T01:53:04;4.10;;;1.10;;
75698;SDS011;64313;51.018;13.742;2023-09-30T01:55:34;3.47;;;1.10;;
75698;SDS011;64313;51.018;13.742;2023-09-30T01:58:00;2.78;;;1.10;;
75698;SDS011;64313;51.018;13.742;2023-09-30T02:00:25;3.92;;;1.10;;
75698;SDS011;64313;51.018;13.742;2023-09-30T02:02:53;3.90;;;1.08;;
75698;SDS011;64313;51.018;13.742;2023-09-30T02:05:22;4.47;;;1.13;;
75698;SDS011;64313;51.018;13.742;2023-09-30T02:07:50;5.25;;;1.38;;
75698;SDS011;64313;51.018;13.742;2023-09-30T02:10:16;4.03;;;1.00;;
75698;SDS011;64313;51.018;13.742;2023-09-30T02:12:43;5.43;;;1.20;;
75698;SDS011;64313;51.018;13.742;2023-09-30T02:15:11;4.88;;;1.20;;
75698;SDS011;64313;51.018;13.742;2023-09-30T02:17:37;4.28;;;1.15;;
75698;SDS011;64313;51.018;13.742;2023-09-30T02:20:03;6.13;;;1.30;;
75698;SDS011;64313;51.018;13.742;2023-09-30T02:22:38;5.03;;;1.30;;
75698;SDS011;64313;51.018;13.742;2023-09-30T02:25:05;6.63;;;1.40;;
75698;SDS011;64313;51.018;13.742;2023-09-30T02:27:33;6.25;;;1.40;;
75698;SDS011;64313;51.018;13.742;2023-09-30T02:29:59;6.38;;;1.50;;
75698;SDS011;64313;51.018;13.742;2023-09-30T02:32:25;5.88;;;1.30;;
75698;SDS011;64313;51.018;13.742;2023-09-30T02:34:50;5.28;;;1.55;;
75698;SDS011;64313;51.018;13.742;2023-09-30T02:37:16;4.95;;;1.35;;
75698;SDS011;64313;51.018;13.742;2023-09-30T02:39:43;5.82;;;1.20;;
75698;SDS011;64313;51.018;13.742;2023-09-30T02:42:09;4.53;;;1.15;;
75698;SDS011;64313;51.018;13.742;2023-09-30T02:44:35;6.05;;;1.17;;
75698;SDS011;64313;51.018;13.742;2023-09-30T02:47:01;5.72;;;1.50;;
75698;SDS011;64313;51.018;13.742;2023-09-30T02:49:27;4.70;;;1.27;;
75698;SDS011;64313;51.018;13.742;2023-09-30T02:51:54;6.22;;;1.20;;
75698;SDS011;64313;51.018;13.742;2023-09-30T02:54:19;5.45;;;1.13;;
75698;SDS011;64313;51.018;13.742;2023-09-30T02:56:45;4.93;;;1.40;;
75698;SDS011;64313;51.018;13.742;2023-09-30T02:59:13;5.07;;;1.40;;
75698;SDS011;64313;51.018;13.742;2023-09-30T03:01:40;4.45;;;1.17;;
75698;SDS011;64313;51.018;13.742;2023-09-30T03:04:06;8.43;;;1.58;;
75698;SDS011;64313;51.018;13.742;2023-09-30T03:06:37;7.65;;;1.80;;
75698;SDS011;64313;51.018;13.742;2023-09-30T03:09:03;8.00;;;1.60;;
75698;SDS011;64313;51.018;13.742;2023-09-30T03:11:29;6.60;;;1.40;;
75698;SDS011;64313;51.018;13.742;2023-09-30T03:13:56;8.48;;;2.47;;
75698;SDS011;64313;51.018;13.742;2023-09-30T03:16:22;8.93;;;1.80;;
75698;SDS011;64313;51.018;13.742;2023-09-30T03:18:49;7.88;;;1.70;;
75698;SDS011;64313;51.018;13.742;2023-09-30T03:21:15;10.13;;;1.90;;
75698;SDS011;64313;51.018;13.742;2023-09-30T03:23:41;10.27;;;1.83;;
75698;SDS011;64313;51.018;13.742;2023-09-30T03:26:06;8.13;;;1.83;;
75698;SDS011;64313;51.018;13.742;2023-09-30T03:28:38;12.73;;;1.60;;
75698;SDS011;64313;51.018;13.742;2023-09-30T03:31:04;7.28;;;1.60;;
75698;SDS011;64313;51.018;13.742;2023-09-30T03:33:30;7.60;;;1.65;;
75698;SDS011;64313;51.018;13.742;2023-09-30T03:35:56;9.63;;;2.15;;
75698;SDS011;64313;51.018;13.742;2023-09-30T03:38:23;6.25;;;1.50;;
75698;SDS011;64313;51.018;13.742;2023-09-30T03:40:49;6.85;;;1.70;;
75698;SDS011;64313;51.018;13.742;2023-09-30T03:43:15;6.10;;;1.40;;
75698;SDS011;64313;51.018;13.742;2023-09-30T03:45:41;5.70;;;1.48;;
75698;SDS011;64313;51.018;13.742;2023-09-30T03:48:06;6.93;;;1.52;;
75698;SDS011;64313;51.018;13.742;2023-09-30T03:50:32;9.98;;;2.03;;
75698;SDS011;64313;51.018;13.742;2023-09-30T03:53:04;12.13;;;1.80;;
75698;SDS011;64313;51.018;13.742;2023-09-30T03:55:30;6.55;;;1.40;;
75698;SDS011;64313;51.018;13.742;2023-09-30T03:57:57;11.15;;;2.00;;
75698;SDS011;64313;51.018;13.742;2023-09-30T04:00:23;7.32;;;1.40;;
75698;SDS011;64313;51.018;13.742;2023-09-30T04:02:49;8.27;;;1.60;;
75698;SDS011;64313;51.018;13.742;2023-09-30T04:05:18;7.88;;;2.00;;
75698;SDS011;64313;51.018;13.742;2023-09-30T04:07:44;10.00;;;1.83;;
75698;SDS011;64313;51.018;13.742;2023-09-30T04:10:09;9.07;;;1.65;;
75698;SDS011;64313;51.018;13.742;2023-09-30T04:12:35;10.75;;;1.98;;
75698;SDS011;64313;51.018;13.742;2023-09-30T04:15:02;8.60;;;1.70;;
75698;SDS011;64313;51.018;13.742;2023-09-30T04:17:28;8.98;;;1.73;;
75698;SDS011;64313;51.018;13.742;2023-09-30T04:19:54;10.15;;;2.40;;
75698;SDS011;64313;51.018;13.742;2023-09-30T04:22:19;9.68;;;2.08;;
75698;SDS011;64313;51.018;13.742;2023-09-30T04:24:46;14.05;;;1.98;;
75698;SDS011;64313;51.018;13.742;2023-09-30T04:27:11;10.10;;;1.70;;
75698;SDS011;64313;51.018;13.742;2023-09-30T04:29:36;10.10;;;2.00;;
75698;SDS011;64313;51.018;13.742;2023-09-30T04:32:03;12.80;;;2.53;;
75698;SDS011;64313;51.018;13.742;2023-09-30T04:34:29;11.00;;;2.00;;
75698;SDS011;64313;51.018;13.742;2023-09-30T04:36:55;11.50;;;2.10;;
75698;SDS011;64313;51.018;13.742;2023-09-30T04:39:21;7.57;;;1.80;;
75698;SDS011;64313;51.018;13.742;2023-09-30T04:41:46;11.15;;;1.90;;
75698;SDS011;64313;51.018;13.742;2023-09-30T04:44:12;10.57;;;2.00;;
75698;SDS011;64313;51.018;13.742;2023-09-30T04:46:37;10.85;;;2.10;;
75698;SDS011;64313;51.018;13.742;2023-09-30T04:49:07;9.18;;;2.15;;
75698;SDS011;64313;51.018;13.742;2023-09-30T04:51:32;9.52;;;2.13;;
75698;SDS011;64313;51.018;13.742;2023-09-30T04:53:59;9.98;;;1.88;;
75698;SDS011;64313;51.018;13.742;2023-09-30T04:56:24;8.32;;;2.20;;
75698;SDS011;64313;51.018;13.742;2023-09-30T04:58:50;12.90;;;2.30;;
75698;SDS011;64313;51.018;13.742;2023-09-30T05:01:17;9.65;;;2.00;;
75698;SDS011;64313;51.018;13.742;2023-09-30T05:03:43;11.38;;;2.20;;
75698;SDS011;64313;51.018;13.742;2023-09-30T05:06:09;12.55;;;2.42;;
75698;SDS011;64313;51.018;13.742;2023-09-30T05:08:35;8.43;;;1.90;;
75698;SDS011;64313;51.018;13.742;2023-09-30T05:11:00;8.73;;;2.20;;
75698;SDS011;64313;51.018;13.742;2023-09-30T05:13:26;13.48;;;2.38;;
75698;SDS011;64313;51.018;13.742;2023-09-30T05:15:51;7.53;;;2.00;;
75698;SDS011;64313;51.018;13.742;2023-09-30T05:18:17;9.18;;;1.85;;
75698;SDS011;64313;51.018;13.742;2023-09-30T05:20:42;9.68;;;1.90;;
75698;SDS011;64313;51.018;13.742;2023-09-30T05:23:09;13.00;;;2.08;;
75698;SDS011;64313;51.018;13.742;2023-09-30T05:25:37;10.45;;;2.10;;
75698;SDS011;64313;51.018;13.742;2023-09-30T05:28:03;10.32;;;2.17;;
75698;SDS011;64313;51.018;13.742;2023-09-30T05:30:30;13.75;;;2.50;;
75698;SDS011;64313;51.018;13.742;2023-09-30T05:32:56;10.48;;;2.22;;
75698;SDS011;64313;51.018;13.742;2023-09-30T05:35:23;9.25;;;2.00;;
75698;SDS011;64313;51.018;13.742;2023-09-30T05:37:49;7.97;;;2.25;;
75698;SDS011;64313;51.018;13.742;2023-09-30T05:40:18;10.85;;;1.80;;
75698;SDS011;64313;51.018;13.742;2023-09-30T05:45:25;10.27;;;1.83;;
75698;SDS011;64313;51.018;13.742;2023-09-30T05:47:56;7.93;;;2.05;;
75698;SDS011;64313;51.018;13.742;2023-09-30T05:50:24;9.75;;;1.95;;
75698;SDS011;64313;51.018;13.742;2023-09-30T05:52:52;8.70;;;2.08;;
75698;SDS011;64313;51.018;13.742;2023-09-30T05:55:20;7.60;;;1.83;;
75698;SDS011;64313;51.018;13.742;2023-09-30T05:57:49;11.98;;;2.00;;
75698;SDS011;64313;51.018;13.742;2023-09-30T06:00:15;8.73;;;2.03;;
75698;SDS011;64313;51.018;13.742;2023-09-30T06:02:48;8.18;;;2.00;;
75698;SDS011;64313;51.018;13.742;2023-09-30T06:05:14;7.65;;;1.73;;
75698;SDS011;64313;51.018;13.742;2023-09-30T06:07:41;9.23;;;1.95;;
75698;SDS011;64313;51.018;13.742;2023-09-30T06:10:10;11.20;;;2.30;;
75698;SDS011;64313;51.018;13.742;2023-09-30T06:12:36;8.10;;;1.83;;
75698;SDS011;64313;51.018;13.742;2023-09-30T06:15:01;9.27;;;1.92;;
75698;SDS011;64313;51.018;13.742;2023-09-30T06:17:28;8.95;;;2.17;;
75698;SDS011;64313;51.018;13.742;2023-09-30T06:19:53;11.05;;;2.35;;
75698;SDS011;64313;51.018;13.742;2023-09-30T06:22:18;13.30;;;2.33;;
75698;SDS011;64313;51.018;13.742;2023-09-30T06:24:44;9.55;;;2.10;;
75698;SDS011;64313;51.018;13.742;2023-09-30T06:27:09;8.70;;;1.80;;
75698;SDS011;64313;51.018;13.742;2023-09-30T06:29:38;9.13;;;2.13;;
75698;SDS011;64313;51.018;13.742;2023-09-30T06:32:03;12.10;;;2.40;;
75698;SDS011;64313;51.018;13.742;2023-09-30T06:34:29;11.68;;;1.98;;
75698;SDS011;64313;51.018;13.742;2023-09-30T06:36:55;9.00;;;2.08;;
75698;SDS011;64313;51.018;13.742;2023-09-30T06:39:21;7.75;;;1.83;;
75698;SDS011;64313;51.018;13.742;2023-09-30T06:41:46;9.45;;;2.28;;
75698;SDS011;64313;51.018;13.742;2023-09-30T06:44:12;11.30;;;2.30;;
75698;SDS011;64313;51.018;13.742;2023-09-30T06:46:38;10.65;;;2.20;;
75698;SDS011;64313;51.018;13.742;2023-09-30T06:49:04;8.82;;;2.00;;
75698;SDS011;64313;51.018;13.742;2023-09-30T06:51:29;10.77;;;2.47;;
75698;SDS011;64313;51.018;13.742;2023-09-30T06:53:56;9.68;;;2.25;;
75698;SDS011;64313;51.018;13.742;2023-09-30T06:56:21;14.40;;;2.42;;
75698;SDS011;64313;51.018;13.742;2023-09-30T06:58:47;11.98;;;2.28;;
75698;SDS011;64313;51.018;13.742;2023-09-30T07:01:15;8.73;;;2.03;;
75698;SDS011;64313;51.018;13.742;2023-09-30T07:03:42;12.75;;;2.03;;
75698;SDS011;64313;51.018;13.742;2023-09-30T07:06:07;11.90;;;2.28;;
75698;SDS011;64313;51.018;13.742;2023-09-30T07:08:33;11.65;;;2.13;;
75698;SDS011;64313;51.018;13.742;2023-09-30T07:10:58;14.32;;;2.20;;
75698;SDS011;64313;51.018;13.742;2023-09-30T07:13:24;11.85;;;2.30;;
75698;SDS011;64313;51.018;13.742;2023-09-30T07:15:50;11.57;;;2.25;;
75698;SDS011;64313;51.018;13.742;2023-09-30T07:18:15;9.10;;;2.40;;
75698;SDS011;64313;51.018;13.742;2023-09-30T07:20:41;9.85;;;2.10;;
75698;SDS011;64313;51.018;13.742;2023-09-30T07:23:06;7.57;;;2.22;;
75698;SDS011;64313;51.018;13.742;2023-09-30T07:25:34;12.85;;;2.88;;
75698;SDS011;64313;51.018;13.742;2023-09-30T07:27:59;12.13;;;2.38;;
75698;SDS011;64313;51.018;13.742;2023-09-30T07:30:26;9.13;;;2.13;;
75698;SDS011;64313;51.018;13.742;2023-09-30T07:32:51;10.10;;;2.25;;
75698;SDS011;64313;51.018;13.742;2023-09-30T07:35:17;7.40;;;1.88;;
75698;SDS011;64313;51.018;13.742;2023-09-30T07:37:43;11.80;;;2.90;;
75698;SDS011;64313;51.018;13.742;2023-09-30T07:40:09;10.45;;;2.10;;
75698;SDS011;64313;51.018;13.742;2023-09-30T07:42:40;12.63;;;2.28;;
75698;SDS011;64313;51.018;13.742;2023-09-30T07:45:06;8.80;;;2.17;;
75698;SDS011;64313;51.018;13.742;2023-09-30T07:47:32;8.93;;;2.03;;
75698;SDS011;64313;51.018;13.742;2023-09-30T07:49:59;10.73;;;2.00;;
75698;SDS011;64313;51.018;13.742;2023-09-30T07:52:31;9.82;;;1.98;;
75698;SDS011;64313;51.018;13.742;2023-09-30T07:54:57;11.05;;;2.17;;
75698;SDS011;64313;51.018;13.742;2023-09-30T07:57:22;11.95;;;2.20;;
75698;SDS011;64313;51.018;13.742;2023-09-30T07:59:50;11.23;;;2.28;;
75698;SDS011;64313;51.018;13.742;2023-09-30T08:02:16;10.43;;;2.20;;
75698;SDS011;64313;51.018;13.742;2023-09-30T08:04:45;9.35;;;2.10;;
75698;SDS011;64313;51.018;13.742;2023-09-30T08:07:10;12.18;;;2.30;;
75698;SDS011;64313;51.018;13.742;2023-09-30T08:09:36;10.73;;;2.28;;
75698;SDS011;64313;51.018;13.742;2023-09-30T08:12:02;9.90;;;2.60;;
75698;SDS011;64313;51.018;13.742;2023-09-30T08:14:28;11.80;;;2.35;;
75698;SDS011;64313;51.018;13.742;2023-09-30T08:16:53;11.18;;;2.35;;
75698;SDS011;64313;51.018;13.742;2023-09-30T08:19:19;13.82;;;2.20;;
75698;SDS011;64313;51.018;13.742;2023-09-30T08:21:45;14.82;;;2.22;;
75698;SDS011;64313;51.018;13.742;2023-09-30T08:24:11;14.68;;;2.17;;
75698;SDS011;64313;51.018;13.742;2023-09-30T08:26:36;11.32;;;1.90;;
75698;SDS011;64313;51.018;13.742;2023-09-30T08:29:03;10.45;;;2.00;;
75698;SDS011;64313;51.018;13.742;2023-09-30T08:31:28;11.38;;;2.30;;
75698;SDS011;64313;51.018;13.742;2023-09-30T08:33:54;10.90;;;2.67;;
75698;SDS011;64313;51.018;13.742;2023-09-30T08:36:20;8.60;;;1.92;;
75698;SDS011;64313;51.018;13.742;2023-09-30T08:38:46;12.05;;;2.20;;
75698;SDS011;64313;51.018;13.742;2023-09-30T08:41:14;11.52;;;2.17;;
75698;SDS011;64313;51.018;13.742;2023-09-30T08:44:00;11.38;;;2.17;;
75698;SDS011;64313;51.018;13.742;2023-09-30T08:46:31;10.75;;;2.28;;
75698;SDS011;64313;51.018;13.742;2023-09-30T08:49:00;10.02;;;2.30;;
75698;SDS011;64313;51.018;13.742;2023-09-30T08:51:29;7.82;;;1.83;;
75698;SDS011;64313;51.018;13.742;2023-09-30T08:53:56;15.98;;;2.20;;
